sensor_id;sensor_type;location;lat;lon;timestamp;temperature;humidity
57242;DHT22;43095;53.302;5.786;2024-03-07T00:00:46;3.10;99.90
57242;DHT22;43095;53.302;5.786;2024-03-07T00:03:15;3.10;99.90
57242;DHT22;43095;53.302;5.786;2024-03-07T00:05:43;3.00;99.90
57242;DHT22;43095;53.302;5.786;2024-03-07T00:08:12;3.10;99.90
57242;DHT22;43095;53.302;5.786;2024-03-07T00:10:40;3.00;99.90
57242;DHT22;43095;53.302;5.786;2024-03-07T00:13:08;3.00;99.90
57242;DHT22;43095;53.302;5.786;2024-03-07T00:15:37;3.00;99.90
57242;DHT22;43095;53.302;5.786;2024-03-07T00:18:04;3.00;99.90
57242;DHT22;43095;53.302;5.786;2024-03-07T00:20:33;2.90;99.90
57242;DHT22;43095;53.302;5.786;2024-03-07T00:23:00;2.90;99.90
57242;DHT22;43095;53.302;5.786;2024-03-07T00:25:30;2.90;99.90
57242;DHT22;43095;53.302;5.786;2024-03-07T00:27:58;2.90;99.90
57242;DHT22;43095;53.302;5.786;2024-03-07T00:30:30;2.90;99.90
57242;DHT22;43095;53.302;5.786;2024-03-07T00:33:00;2.90;99.90
57242;DHT22;43095;53.302;5.786;2024-03-07T00:35:28;2.90;99.90
57242;DHT22;43095;53.302;5.786;2024-03-07T00:37:56;2.90;99.90
57242;DHT22;43095;53.302;5.786;2024-03-07T00:40:24;2.90;99.90
57242;DHT22;43095;53.302;5.786;2024-03-07T00:42:55;2.90;99.90
57242;DHT22;43095;53.302;5.786;2024-03-07T00:45:26;2.90;99.90
57242;DHT22;43095;53.302;5.786;2024-03-07T00:47:54;2.90;99.90
57242;DHT22;43095;53.302;5.786;2024-03-07T00:50:22;2.80;99.90
57242;DHT22;43095;53.302;5.786;2024-03-07T00:52:49;2.80;99.90
57242;DHT22;43095;53.302;5.786;2024-03-07T00:55:17;2.80;99.90
57242;DHT22;43095;53.302;5.786;2024-03-07T00:57:45;2.80;99.90
57242;DHT22;43095;53.302;5.786;2024-03-07T01:00:13;2.80;99.90
57242;DHT22;43095;53.302;5.786;2024-03-07T01:02:41;2.80;99.90
57242;DHT22;43095;53.302;5.786;2024-03-07T01:05:11;2.80;99.90
57242;DHT22;43095;53.302;5.786;2024-03-07T01:07:40;2.80;99.90
57242;DHT22;43095;53.302;5.786;2024-03-07T01:10:10;2.80;99.90
57242;DHT22;43095;53.302;5.786;2024-03-07T01:12:38;2.70;99.90
57242;DHT22;43095;53.302;5.786;2024-03-07T01:15:05;2.70;99.90
57242;DHT22;43095;53.302;5.786;2024-03-07T01:17:35;2.70;99.90
57242;DHT22;43095;53.302;5.786;2024-03-07T01:20:03;2.70;99.90
57242;DHT22;43095;53.302;5.786;2024-03-07T01:22:32;2.60;99.90
57242;DHT22;43095;53.302;5.786;2024-03-07T01:25:00;2.50;99.90
57242;DHT22;43095;53.302;5.786;2024-03-07T01:27:28;2.50;99.90
57242;DHT22;43095;53.302;5.786;2024-03-07T01:29:57;2.50;99.90
57242;DHT22;43095;53.302;5.786;2024-03-07T01:32:24;2.50;99.90
57242;DHT22;43095;53.302;5.786;2024-03-07T01:34:52;2.50;99.90
57242;DHT22;43095;53.302;5.786;2024-03-07T01:37:19;2.40;99.90
57242;DHT22;43095;53.302;5.786;2024-03-07T01:39:46;2.40;99.90
57242;DHT22;43095;53.302;5.786;2024-03-07T01:42:14;2.40;99.90
57242;DHT22;43095;53.302;5.786;2024-03-07T01:44:41;2.30;99.90
57242;DHT22;43095;53.302;5.786;2024-03-07T01:47:11;2.30;99.90
57242;DHT22;43095;53.302;5.786;2024-03-07T01:49:39;2.30;99.90
57242;DHT22;43095;53.302;5.786;2024-03-07T01:52:06;2.20;99.90
57242;DHT22;43095;53.302;5.786;2024-03-07T01:54:35;2.20;99.90
57242;DHT22;43095;53.302;5.786;2024-03-07T01:57:05;2.20;99.90
57242;DHT22;43095;53.302;5.786;2024-03-07T01:59:33;2.20;99.90
57242;DHT22;43095;53.302;5.786;2024-03-07T02:02:02;2.10;99.90
57242;DHT22;43095;53.302;5.786;2024-03-07T02:04:33;2.10;99.90
57242;DHT22;43095;53.302;5.786;2024-03-07T02:07:00;2.10;99.90
57242;DHT22;43095;53.302;5.786;2024-03-07T02:09:28;2.10;99.90
57242;DHT22;43095;53.302;5.786;2024-03-07T02:11:56;2.10;99.90
57242;DHT22;43095;53.302;5.786;2024-03-07T02:14:23;2.10;99.90
57242;DHT22;43095;53.302;5.786;2024-03-07T02:16:51;2.00;99.90
57242;DHT22;43095;53.302;5.786;2024-03-07T02:19:18;2.00;99.90
57242;DHT22;43095;53.302;5.786;2024-03-07T02:21:46;2.00;99.90
57242;DHT22;43095;53.302;5.786;2024-03-07T02:24:14;2.00;99.90
57242;DHT22;43095;53.302;5.786;2024-03-07T02:26:42;2.00;99.90
57242;DHT22;43095;53.302;5.786;2024-03-07T02:29:10;2.00;99.90
57242;DHT22;43095;53.302;5.786;2024-03-07T02:31:38;2.00;99.90
57242;DHT22;43095;53.302;5.786;2024-03-07T02:34:08;2.00;99.90
57242;DHT22;43095;53.302;5.786;2024-03-07T02:36:36;1.90;99.90
57242;DHT22;43095;53.302;5.786;2024-03-07T02:39:03;1.90;99.90
57242;DHT22;43095;53.302;5.786;2024-03-07T02:41:31;1.90;99.90
57242;DHT22;43095;53.302;5.786;2024-03-07T02:43:58;1.90;99.90
57242;DHT22;43095;53.302;5.786;2024-03-07T02:46:28;1.90;99.90
57242;DHT22;43095;53.302;5.786;2024-03-07T02:48:55;1.90;99.90
57242;DHT22;43095;53.302;5.786;2024-03-07T02:51:22;1.80;99.90
57242;DHT22;43095;53.302;5.786;2024-03-07T02:53:51;1.80;99.90
57242;DHT22;43095;53.302;5.786;2024-03-07T02:56:18;1.80;99.90
57242;DHT22;43095;53.302;5.786;2024-03-07T02:58:46;1.80;99.90
57242;DHT22;43095;53.302;5.786;2024-03-07T03:01:14;1.80;99.90
57242;DHT22;43095;53.302;5.786;2024-03-07T03:03:41;1.80;99.90
57242;DHT22;43095;53.302;5.786;2024-03-07T03:06:10;1.80;99.90
57242;DHT22;43095;53.302;5.786;2024-03-07T03:08:38;1.70;99.90
57242;DHT22;43095;53.302;5.786;2024-03-07T03:11:05;1.70;99.90
57242;DHT22;43095;53.302;5.786;2024-03-07T03:13:42;1.70;99.90
57242;DHT22;43095;53.302;5.786;2024-03-07T03:16:10;1.70;99.90
57242;DHT22;43095;53.302;5.786;2024-03-07T03:18:38;1.70;99.90
57242;DHT22;43095;53.302;5.786;2024-03-07T03:21:05;1.70;99.90
57242;DHT22;43095;53.302;5.786;2024-03-07T03:23:33;1.70;99.90
57242;DHT22;43095;53.302;5.786;2024-03-07T03:26:01;1.70;99.90
57242;DHT22;43095;53.302;5.786;2024-03-07T03:28:29;1.70;99.90
57242;DHT22;43095;53.302;5.786;2024-03-07T03:30:56;1.60;99.90
57242;DHT22;43095;53.302;5.786;2024-03-07T03:33:24;1.60;99.90
57242;DHT22;43095;53.302;5.786;2024-03-07T03:35:52;1.60;99.90
57242;DHT22;43095;53.302;5.786;2024-03-07T03:38:19;1.60;99.90
57242;DHT22;43095;53.302;5.786;2024-03-07T03:40:48;1.60;99.90
57242;DHT22;43095;53.302;5.786;2024-03-07T03:43:15;1.50;99.90
57242;DHT22;43095;53.302;5.786;2024-03-07T03:45:43;1.50;99.90
57242;DHT22;43095;53.302;5.786;2024-03-07T03:48:10;1.50;99.90
57242;DHT22;43095;53.302;5.786;2024-03-07T03:50:38;1.50;99.90
57242;DHT22;43095;53.302;5.786;2024-03-07T03:53:05;1.40;99.90
57242;DHT22;43095;53.302;5.786;2024-03-07T03:55:33;1.40;99.90
57242;DHT22;43095;53.302;5.786;2024-03-07T03:58:00;1.40;99.90
57242;DHT22;43095;53.302;5.786;2024-03-07T04:00:27;1.40;99.90
57242;DHT22;43095;53.302;5.786;2024-03-07T04:02:55;1.40;99.90
57242;DHT22;43095;53.302;5.786;2024-03-07T04:05:22;1.40;99.90
57242;DHT22;43095;53.302;5.786;2024-03-07T04:07:50;1.40;99.90
57242;DHT22;43095;53.302;5.786;2024-03-07T04:10:17;1.40;99.90
57242;DHT22;43095;53.302;5.786;2024-03-07T04:12:45;1.40;99.90
57242;DHT22;43095;53.302;5.786;2024-03-07T04:15:14;1.40;99.90
57242;DHT22;43095;53.302;5.786;2024-03-07T04:17:46;1.40;99.90
57242;DHT22;43095;53.302;5.786;2024-03-07T04:20:15;1.30;99.90
57242;DHT22;43095;53.302;5.786;2024-03-07T04:22:46;1.30;99.90
57242;DHT22;43095;53.302;5.786;2024-03-07T04:25:17;1.30;99.90
57242;DHT22;43095;53.302;5.786;2024-03-07T04:27:45;1.20;99.90
57242;DHT22;43095;53.302;5.786;2024-03-07T04:30:13;1.20;99.90
57242;DHT22;43095;53.302;5.786;2024-03-07T04:32:42;1.20;99.90
57242;DHT22;43095;53.302;5.786;2024-03-07T04:35:10;1.20;99.90
57242;DHT22;43095;53.302;5.786;2024-03-07T04:37:42;1.20;99.90
57242;DHT22;43095;53.302;5.786;2024-03-07T04:40:10;1.20;99.90
57242;DHT22;43095;53.302;5.786;2024-03-07T04:42:47;1.20;99.90
57242;DHT22;43095;53.302;5.786;2024-03-07T04:45:18;1.20;99.90
57242;DHT22;43095;53.302;5.786;2024-03-07T04:47:46;1.20;99.90
57242;DHT22;43095;53.302;5.786;2024-03-07T04:50:15;1.20;99.90
57242;DHT22;43095;53.302;5.786;2024-03-07T04:52:47;1.20;99.90
57242;DHT22;43095;53.302;5.786;2024-03-07T04:55:16;1.20;99.90
57242;DHT22;43095;53.302;5.786;2024-03-07T04:57:44;1.20;99.90
57242;DHT22;43095;53.302;5.786;2024-03-07T05:00:12;1.20;99.90
57242;DHT22;43095;53.302;5.786;2024-03-07T05:02:48;1.20;99.90
57242;DHT22;43095;53.302;5.786;2024-03-07T05:05:19;1.20;99.90
57242;DHT22;43095;53.302;5.786;2024-03-07T05:07:53;1.20;99.90
57242;DHT22;43095;53.302;5.786;2024-03-07T05:10:20;1.10;99.90
57242;DHT22;43095;53.302;5.786;2024-03-07T05:12:48;1.10;99.90
57242;DHT22;43095;53.302;5.786;2024-03-07T05:15:16;1.10;99.90
57242;DHT22;43095;53.302;5.786;2024-03-07T05:17:44;1.10;99.90
57242;DHT22;43095;53.302;5.786;2024-03-07T05:20:12;1.10;99.90
57242;DHT22;43095;53.302;5.786;2024-03-07T05:22:40;1.10;99.90
57242;DHT22;43095;53.302;5.786;2024-03-07T05:25:12;1.00;99.90
57242;DHT22;43095;53.302;5.786;2024-03-07T05:27:39;1.00;99.90
57242;DHT22;43095;53.302;5.786;2024-03-07T05:30:07;1.00;99.90
57242;DHT22;43095;53.302;5.786;2024-03-07T05:32:38;1.00;99.90
57242;DHT22;43095;53.302;5.786;2024-03-07T05:35:08;1.00;99.90
57242;DHT22;43095;53.302;5.786;2024-03-07T05:37:36;1.00;99.90
57242;DHT22;43095;53.302;5.786;2024-03-07T05:40:04;0.90;99.90
57242;DHT22;43095;53.302;5.786;2024-03-07T05:42:35;0.90;99.90
57242;DHT22;43095;53.302;5.786;2024-03-07T05:45:02;0.90;99.90
57242;DHT22;43095;53.302;5.786;2024-03-07T05:47:35;0.90;99.90
57242;DHT22;43095;53.302;5.786;2024-03-07T05:50:03;0.90;99.90
57242;DHT22;43095;53.302;5.786;2024-03-07T05:52:31;0.80;99.90
57242;DHT22;43095;53.302;5.786;2024-03-07T05:54:58;0.80;99.90
57242;DHT22;43095;53.302;5.786;2024-03-07T05:57:26;0.80;99.90
57242;DHT22;43095;53.302;5.786;2024-03-07T05:59:53;0.80;99.90
57242;DHT22;43095;53.302;5.786;2024-03-07T06:02:21;0.80;99.90
57242;DHT22;43095;53.302;5.786;2024-03-07T06:04:48;0.80;99.90
57242;DHT22;43095;53.302;5.786;2024-03-07T06:07:16;0.80;99.90
57242;DHT22;43095;53.302;5.786;2024-03-07T06:09:43;0.80;99.90
57242;DHT22;43095;53.302;5.786;2024-03-07T06:12:11;0.80;99.90
57242;DHT22;43095;53.302;5.786;2024-03-07T06:14:49;0.80;99.90
57242;DHT22;43095;53.302;5.786;2024-03-07T06:17:17;0.80;99.90
57242;DHT22;43095;53.302;5.786;2024-03-07T06:19:49;0.80;99.90
57242;DHT22;43095;53.302;5.786;2024-03-07T06:22:16;0.80;99.90
57242;DHT22;43095;53.302;5.786;2024-03-07T06:24:43;0.80;99.90
57242;DHT22;43095;53.302;5.786;2024-03-07T06:27:11;0.80;99.90
57242;DHT22;43095;53.302;5.786;2024-03-07T06:29:54;0.90;99.90
57242;DHT22;43095;53.302;5.786;2024-03-07T06:32:21;0.90;99.90
57242;DHT22;43095;53.302;5.786;2024-03-07T06:34:49;1.00;99.90
57242;DHT22;43095;53.302;5.786;2024-03-07T06:37:17;1.00;99.90
57242;DHT22;43095;53.302;5.786;2024-03-07T06:39:46;1.00;99.90
57242;DHT22;43095;53.302;5.786;2024-03-07T06:42:14;1.00;99.90
57242;DHT22;43095;53.302;5.786;2024-03-07T06:44:42;1.00;99.90
57242;DHT22;43095;53.302;5.786;2024-03-07T06:47:10;1.10;99.90
57242;DHT22;43095;53.302;5.786;2024-03-07T06:49:37;1.10;99.90
57242;DHT22;43095;53.302;5.786;2024-03-07T06:52:07;1.20;99.90
57242;DHT22;43095;53.302;5.786;2024-03-07T06:54:35;1.20;99.90
57242;DHT22;43095;53.302;5.786;2024-03-07T06:57:03;1.30;99.90
57242;DHT22;43095;53.302;5.786;2024-03-07T06:59:30;1.40;99.90
57242;DHT22;43095;53.302;5.786;2024-03-07T07:01:58;1.40;99.90
57242;DHT22;43095;53.302;5.786;2024-03-07T07:04:26;1.40;99.90
57242;DHT22;43095;53.302;5.786;2024-03-07T07:06:59;1.50;99.90
57242;DHT22;43095;53.302;5.786;2024-03-07T07:09:28;1.60;99.90
57242;DHT22;43095;53.302;5.786;2024-03-07T07:11:55;1.70;99.90
57242;DHT22;43095;53.302;5.786;2024-03-07T07:14:22;1.80;99.90
57242;DHT22;43095;53.302;5.786;2024-03-07T07:16:50;1.90;99.90
57242;DHT22;43095;53.302;5.786;2024-03-07T07:19:18;1.90;99.90
57242;DHT22;43095;53.302;5.786;2024-03-07T07:21:45;2.00;99.90
57242;DHT22;43095;53.302;5.786;2024-03-07T07:24:14;2.10;99.90
57242;DHT22;43095;53.302;5.786;2024-03-07T07:26:41;2.20;99.90
57242;DHT22;43095;53.302;5.786;2024-03-07T07:29:10;2.20;99.90
57242;DHT22;43095;53.302;5.786;2024-03-07T07:31:37;2.30;99.90
57242;DHT22;43095;53.302;5.786;2024-03-07T07:34:04;2.40;99.90
57242;DHT22;43095;53.302;5.786;2024-03-07T07:36:33;2.40;99.90
57242;DHT22;43095;53.302;5.786;2024-03-07T07:39:00;2.50;99.90
57242;DHT22;43095;53.302;5.786;2024-03-07T07:41:28;2.50;99.90
57242;DHT22;43095;53.302;5.786;2024-03-07T07:43:56;2.60;99.90
57242;DHT22;43095;53.302;5.786;2024-03-07T07:46:24;2.60;99.90
57242;DHT22;43095;53.302;5.786;2024-03-07T07:48:51;2.70;99.90
57242;DHT22;43095;53.302;5.786;2024-03-07T07:51:19;2.80;99.90
57242;DHT22;43095;53.302;5.786;2024-03-07T07:53:47;2.80;99.90
57242;DHT22;43095;53.302;5.786;2024-03-07T07:56:14;2.90;99.90
57242;DHT22;43095;53.302;5.786;2024-03-07T07:58:42;2.90;99.90
57242;DHT22;43095;53.302;5.786;2024-03-07T08:01:09;3.00;99.90
57242;DHT22;43095;53.302;5.786;2024-03-07T08:03:37;3.00;99.90
57242;DHT22;43095;53.302;5.786;2024-03-07T08:06:04;3.00;99.90
57242;DHT22;43095;53.302;5.786;2024-03-07T08:08:32;3.10;99.90
57242;DHT22;43095;53.302;5.786;2024-03-07T08:11:00;3.10;99.90
57242;DHT22;43095;53.302;5.786;2024-03-07T08:13:28;3.10;99.90
57242;DHT22;43095;53.302;5.786;2024-03-07T08:15:55;3.10;99.90
57242;DHT22;43095;53.302;5.786;2024-03-07T08:18:23;3.20;99.90
57242;DHT22;43095;53.302;5.786;2024-03-07T08:20:50;3.20;99.90
57242;DHT22;43095;53.302;5.786;2024-03-07T08:23:22;3.30;99.90
57242;DHT22;43095;53.302;5.786;2024-03-07T08:25:52;3.30;99.90
57242;DHT22;43095;53.302;5.786;2024-03-07T08:28:20;3.30;99.90
57242;DHT22;43095;53.302;5.786;2024-03-07T08:30:47;3.30;99.90
57242;DHT22;43095;53.302;5.786;2024-03-07T08:33:15;3.30;99.90
57242;DHT22;43095;53.302;5.786;2024-03-07T08:35:42;3.40;99.90
57242;DHT22;43095;53.302;5.786;2024-03-07T08:38:10;3.50;99.90
57242;DHT22;43095;53.302;5.786;2024-03-07T08:40:39;3.50;99.90
57242;DHT22;43095;53.302;5.786;2024-03-07T08:43:06;3.50;99.90
57242;DHT22;43095;53.302;5.786;2024-03-07T08:45:34;3.50;99.90
57242;DHT22;43095;53.302;5.786;2024-03-07T08:48:03;3.50;99.90
57242;DHT22;43095;53.302;5.786;2024-03-07T08:50:32;3.50;99.90
57242;DHT22;43095;53.302;5.786;2024-03-07T08:53:02;3.50;99.90
57242;DHT22;43095;53.302;5.786;2024-03-07T08:55:31;3.50;99.90
57242;DHT22;43095;53.302;5.786;2024-03-07T08:57:59;3.50;99.90
57242;DHT22;43095;53.302;5.786;2024-03-07T09:00:26;3.50;99.90
57242;DHT22;43095;53.302;5.786;2024-03-07T09:02:58;3.50;99.90
57242;DHT22;43095;53.302;5.786;2024-03-07T09:05:30;3.50;99.90
57242;DHT22;43095;53.302;5.786;2024-03-07T09:08:01;3.50;99.90
57242;DHT22;43095;53.302;5.786;2024-03-07T09:10:30;3.50;99.90
57242;DHT22;43095;53.302;5.786;2024-03-07T09:12:58;3.40;99.90
57242;DHT22;43095;53.302;5.786;2024-03-07T09:15:26;3.50;99.90
57242;DHT22;43095;53.302;5.786;2024-03-07T09:17:54;3.50;99.90
57242;DHT22;43095;53.302;5.786;2024-03-07T09:20:22;3.40;99.90
57242;DHT22;43095;53.302;5.786;2024-03-07T09:22:51;3.40;99.90
57242;DHT22;43095;53.302;5.786;2024-03-07T09:25:23;3.50;99.90
57242;DHT22;43095;53.302;5.786;2024-03-07T09:27:53;3.50;99.90
57242;DHT22;43095;53.302;5.786;2024-03-07T09:30:22;3.50;99.90
57242;DHT22;43095;53.302;5.786;2024-03-07T09:32:54;3.50;99.90
57242;DHT22;43095;53.302;5.786;2024-03-07T09:35:22;3.50;99.90
57242;DHT22;43095;53.302;5.786;2024-03-07T09:37:50;3.50;99.90
57242;DHT22;43095;53.302;5.786;2024-03-07T09:40:17;3.40;99.90
57242;DHT22;43095;53.302;5.786;2024-03-07T09:42:49;3.30;99.90
57242;DHT22;43095;53.302;5.786;2024-03-07T09:45:20;3.30;99.90
57242;DHT22;43095;53.302;5.786;2024-03-07T09:47:50;3.30;99.90
57242;DHT22;43095;53.302;5.786;2024-03-07T09:50:21;3.20;99.90
57242;DHT22;43095;53.302;5.786;2024-03-07T09:52:52;3.20;99.90
57242;DHT22;43095;53.302;5.786;2024-03-07T09:55:22;3.10;99.90
57242;DHT22;43095;53.302;5.786;2024-03-07T09:57:54;3.10;99.90
57242;DHT22;43095;53.302;5.786;2024-03-07T10:00:24;3.10;99.90
57242;DHT22;43095;53.302;5.786;2024-03-07T10:02:58;3.10;99.90
57242;DHT22;43095;53.302;5.786;2024-03-07T10:05:30;3.10;99.90
57242;DHT22;43095;53.302;5.786;2024-03-07T10:07:59;3.10;99.90
57242;DHT22;43095;53.302;5.786;2024-03-07T10:10:27;3.10;99.90
57242;DHT22;43095;53.302;5.786;2024-03-07T10:12:57;3.00;99.90
57242;DHT22;43095;53.302;5.786;2024-03-07T10:15:30;3.00;99.90
57242;DHT22;43095;53.302;5.786;2024-03-07T10:17:59;3.00;99.90
57242;DHT22;43095;53.302;5.786;2024-03-07T10:20:29;3.00;99.90
57242;DHT22;43095;53.302;5.786;2024-03-07T10:22:56;3.00;99.90
57242;DHT22;43095;53.302;5.786;2024-03-07T10:25:25;2.90;99.90
57242;DHT22;43095;53.302;5.786;2024-03-07T10:27:56;2.90;99.90
57242;DHT22;43095;53.302;5.786;2024-03-07T10:30:26;2.70;99.90
57242;DHT22;43095;53.302;5.786;2024-03-07T10:32:59;2.70;99.90
57242;DHT22;43095;53.302;5.786;2024-03-07T10:35:29;2.70;99.90
57242;DHT22;43095;53.302;5.786;2024-03-07T10:37:59;2.60;99.90
57242;DHT22;43095;53.302;5.786;2024-03-07T10:40:34;2.70;99.90
57242;DHT22;43095;53.302;5.786;2024-03-07T10:43:11;2.60;99.90
57242;DHT22;43095;53.302;5.786;2024-03-07T10:45:46;2.70;99.90
57242;DHT22;43095;53.302;5.786;2024-03-07T10:48:20;2.70;99.90
57242;DHT22;43095;53.302;5.786;2024-03-07T10:53:52;2.70;99.90
57242;DHT22;43095;53.302;5.786;2024-03-07T10:59:56;2.70;99.90
57242;DHT22;43095;53.302;5.786;2024-03-07T11:02:36;2.70;99.90
57242;DHT22;43095;53.302;5.786;2024-03-07T11:05:08;2.70;99.90
57242;DHT22;43095;53.302;5.786;2024-03-07T11:07:39;2.70;99.90
57242;DHT22;43095;53.302;5.786;2024-03-07T11:10:08;2.80;99.90
57242;DHT22;43095;53.302;5.786;2024-03-07T11:12:40;2.80;99.90
57242;DHT22;43095;53.302;5.786;2024-03-07T11:15:09;2.80;99.90
57242;DHT22;43095;53.302;5.786;2024-03-07T11:17:47;2.80;99.90
57242;DHT22;43095;53.302;5.786;2024-03-07T11:20:20;2.90;99.90
57242;DHT22;43095;53.302;5.786;2024-03-07T11:22:51;3.00;99.90
57242;DHT22;43095;53.302;5.786;2024-03-07T11:25:22;3.00;99.90
57242;DHT22;43095;53.302;5.786;2024-03-07T11:28:00;3.10;99.90
57242;DHT22;43095;53.302;5.786;2024-03-07T11:30:29;3.10;99.90
57242;DHT22;43095;53.302;5.786;2024-03-07T11:32:56;3.10;99.90
57242;DHT22;43095;53.302;5.786;2024-03-07T11:35:32;3.10;99.90
57242;DHT22;43095;53.302;5.786;2024-03-07T11:38:06;3.20;99.90
57242;DHT22;43095;53.302;5.786;2024-03-07T11:43:04;3.30;99.90
57242;DHT22;43095;53.302;5.786;2024-03-07T11:45:34;3.40;99.90
57242;DHT22;43095;53.302;5.786;2024-03-07T11:48:06;3.50;99.90
57242;DHT22;43095;53.302;5.786;2024-03-07T11:50:38;3.70;99.90
57242;DHT22;43095;53.302;5.786;2024-03-07T11:53:09;3.70;99.90
57242;DHT22;43095;53.302;5.786;2024-03-07T11:55:37;3.80;99.90
57242;DHT22;43095;53.302;5.786;2024-03-07T11:58:21;3.90;99.90
57242;DHT22;43095;53.302;5.786;2024-03-07T12:00:52;3.90;99.90
57242;DHT22;43095;53.302;5.786;2024-03-07T12:03:20;4.00;99.90
57242;DHT22;43095;53.302;5.786;2024-03-07T12:05:49;4.00;99.90
57242;DHT22;43095;53.302;5.786;2024-03-07T12:08:20;3.90;99.90
57242;DHT22;43095;53.302;5.786;2024-03-07T12:10:52;3.90;99.90
57242;DHT22;43095;53.302;5.786;2024-03-07T12:13:25;3.90;99.90
57242;DHT22;43095;53.302;5.786;2024-03-07T12:15:54;3.90;99.90
57242;DHT22;43095;53.302;5.786;2024-03-07T12:18:23;3.90;99.90
57242;DHT22;43095;53.302;5.786;2024-03-07T12:20:52;4.00;99.90
57242;DHT22;43095;53.302;5.786;2024-03-07T12:23:26;4.10;99.90
57242;DHT22;43095;53.302;5.786;2024-03-07T12:26:04;4.10;99.90
57242;DHT22;43095;53.302;5.786;2024-03-07T12:28:32;4.20;99.90
57242;DHT22;43095;53.302;5.786;2024-03-07T12:31:06;4.20;99.90
57242;DHT22;43095;53.302;5.786;2024-03-07T12:33:43;4.30;99.90
57242;DHT22;43095;53.302;5.786;2024-03-07T12:36:14;4.40;99.90
57242;DHT22;43095;53.302;5.786;2024-03-07T12:38:43;4.40;99.90
57242;DHT22;43095;53.302;5.786;2024-03-07T12:41:11;4.40;99.90
57242;DHT22;43095;53.302;5.786;2024-03-07T12:43:44;4.40;99.90
57242;DHT22;43095;53.302;5.786;2024-03-07T12:46:14;4.50;99.90
57242;DHT22;43095;53.302;5.786;2024-03-07T12:48:43;4.50;99.90
57242;DHT22;43095;53.302;5.786;2024-03-07T12:51:15;4.50;99.90
57242;DHT22;43095;53.302;5.786;2024-03-07T12:53:51;4.50;99.90
57242;DHT22;43095;53.302;5.786;2024-03-07T12:56:19;4.50;99.90
57242;DHT22;43095;53.302;5.786;2024-03-07T12:58:48;4.50;99.90
57242;DHT22;43095;53.302;5.786;2024-03-07T13:01:18;4.50;99.90
57242;DHT22;43095;53.302;5.786;2024-03-07T13:03:47;4.60;99.90
57242;DHT22;43095;53.302;5.786;2024-03-07T13:06:15;4.80;99.90
57242;DHT22;43095;53.302;5.786;2024-03-07T13:08:48;5.00;99.90
57242;DHT22;43095;53.302;5.786;2024-03-07T13:11:16;5.10;99.90
57242;DHT22;43095;53.302;5.786;2024-03-07T13:13:43;5.10;99.90
57242;DHT22;43095;53.302;5.786;2024-03-07T13:16:11;5.10;99.80
57242;DHT22;43095;53.302;5.786;2024-03-07T13:18:38;5.10;99.70
57242;DHT22;43095;53.302;5.786;2024-03-07T13:21:06;5.30;99.90
57242;DHT22;43095;53.302;5.786;2024-03-07T13:23:34;5.30;99.60
57242;DHT22;43095;53.302;5.786;2024-03-07T13:26:03;5.20;99.20
57242;DHT22;43095;53.302;5.786;2024-03-07T13:28:36;5.10;99.00
57242;DHT22;43095;53.302;5.786;2024-03-07T13:31:03;5.10;98.80
57242;DHT22;43095;53.302;5.786;2024-03-07T13:33:31;5.00;98.40
57242;DHT22;43095;53.302;5.786;2024-03-07T13:36:03;5.00;98.40
57242;DHT22;43095;53.302;5.786;2024-03-07T13:38:31;5.00;98.50
57242;DHT22;43095;53.302;5.786;2024-03-07T13:40:58;5.00;98.40
57242;DHT22;43095;53.302;5.786;2024-03-07T13:43:28;5.00;98.10
57242;DHT22;43095;53.302;5.786;2024-03-07T13:45:55;5.00;98.20
57242;DHT22;43095;53.302;5.786;2024-03-07T13:48:23;5.00;98.40
57242;DHT22;43095;53.302;5.786;2024-03-07T13:50:51;5.00;98.20
57242;DHT22;43095;53.302;5.786;2024-03-07T13:53:30;5.00;97.60
57242;DHT22;43095;53.302;5.786;2024-03-07T13:56:12;5.00;97.30
57242;DHT22;43095;53.302;5.786;2024-03-07T14:02:01;5.00;97.60
57242;DHT22;43095;53.302;5.786;2024-03-07T14:13:44;5.00;97.60
57242;DHT22;43095;53.302;5.786;2024-03-07T14:31:53;5.00;98.00
57242;DHT22;43095;53.302;5.786;2024-03-07T14:37:19;5.00;97.90
57242;DHT22;43095;53.302;5.786;2024-03-07T14:39:56;5.00;98.10
57242;DHT22;43095;53.302;5.786;2024-03-07T14:42:45;5.00;98.30
57242;DHT22;43095;53.302;5.786;2024-03-07T14:45:18;5.00;98.30
57242;DHT22;43095;53.302;5.786;2024-03-07T14:47:49;5.00;98.30
57242;DHT22;43095;53.302;5.786;2024-03-07T14:50:24;5.00;98.30
57242;DHT22;43095;53.302;5.786;2024-03-07T14:52:56;5.00;98.30
57242;DHT22;43095;53.302;5.786;2024-03-07T14:55:23;5.00;98.40
57242;DHT22;43095;53.302;5.786;2024-03-07T14:57:51;5.00;98.30
57242;DHT22;43095;53.302;5.786;2024-03-07T15:00:18;5.00;98.30
57242;DHT22;43095;53.302;5.786;2024-03-07T15:02:49;5.00;98.20
57242;DHT22;43095;53.302;5.786;2024-03-07T15:05:17;5.00;98.10
57242;DHT22;43095;53.302;5.786;2024-03-07T15:07:47;5.00;98.00
57242;DHT22;43095;53.302;5.786;2024-03-07T15:10:23;5.00;98.20
57242;DHT22;43095;53.302;5.786;2024-03-07T15:12:53;5.00;98.20
57242;DHT22;43095;53.302;5.786;2024-03-07T15:15:21;5.00;98.20
57242;DHT22;43095;53.302;5.786;2024-03-07T15:17:51;5.10;98.30
57242;DHT22;43095;53.302;5.786;2024-03-07T15:20:19;5.10;98.20
57242;DHT22;43095;53.302;5.786;2024-03-07T15:22:54;5.10;98.00
57242;DHT22;43095;53.302;5.786;2024-03-07T15:25:29;5.10;98.00
57242;DHT22;43095;53.302;5.786;2024-03-07T15:27:57;5.00;98.00
57242;DHT22;43095;53.302;5.786;2024-03-07T15:30:27;5.10;98.00
57242;DHT22;43095;53.302;5.786;2024-03-07T15:33:04;5.00;97.80
57242;DHT22;43095;53.302;5.786;2024-03-07T15:35:32;5.00;97.80
57242;DHT22;43095;53.302;5.786;2024-03-07T15:38:01;5.00;97.80
57242;DHT22;43095;53.302;5.786;2024-03-07T15:40:31;5.00;97.60
57242;DHT22;43095;53.302;5.786;2024-03-07T15:43:01;5.00;97.80
57242;DHT22;43095;53.302;5.786;2024-03-07T15:45:29;5.00;97.80
57242;DHT22;43095;53.302;5.786;2024-03-07T15:47:58;5.00;97.90
57242;DHT22;43095;53.302;5.786;2024-03-07T15:50:27;5.00;98.00
57242;DHT22;43095;53.302;5.786;2024-03-07T15:52:57;5.10;98.10
57242;DHT22;43095;53.302;5.786;2024-03-07T15:55:27;5.10;98.00
57242;DHT22;43095;53.302;5.786;2024-03-07T15:57:59;5.10;97.80
57242;DHT22;43095;53.302;5.786;2024-03-07T16:00:31;5.10;98.00
57242;DHT22;43095;53.302;5.786;2024-03-07T16:03:07;5.10;98.00
57242;DHT22;43095;53.302;5.786;2024-03-07T16:05:36;5.10;98.00
57242;DHT22;43095;53.302;5.786;2024-03-07T16:08:06;5.10;98.00
57242;DHT22;43095;53.302;5.786;2024-03-07T16:10:39;5.20;98.10
57242;DHT22;43095;53.302;5.786;2024-03-07T16:13:09;5.20;98.20
57242;DHT22;43095;53.302;5.786;2024-03-07T16:15:39;5.20;98.20
57242;DHT22;43095;53.302;5.786;2024-03-07T16:18:10;5.30;98.00
57242;DHT22;43095;53.302;5.786;2024-03-07T16:20:39;5.30;97.90
57242;DHT22;43095;53.302;5.786;2024-03-07T16:23:07;5.30;97.80
57242;DHT22;43095;53.302;5.786;2024-03-07T16:25:37;5.30;97.60
57242;DHT22;43095;53.302;5.786;2024-03-07T16:28:06;5.30;97.70
57242;DHT22;43095;53.302;5.786;2024-03-07T16:30:34;5.30;97.90
57242;DHT22;43095;53.302;5.786;2024-03-07T16:33:03;5.20;98.20
57242;DHT22;43095;53.302;5.786;2024-03-07T16:35:32;5.20;98.40
57242;DHT22;43095;53.302;5.786;2024-03-07T16:38:00;5.10;98.40